createdAt,value
2022-08-29T00:02:12.569Z,18.41
2022-08-29T00:04:40.179Z,18.42
2022-08-29T00:07:07.697Z,18.42
2022-08-29T00:09:35.302Z,18.40
2022-08-29T00:12:03.025Z,18.38
2022-08-29T00:14:32.279Z,18.42
2022-08-29T00:17:01.009Z,18.42
2022-08-29T00:19:29.016Z,18.45
2022-08-29T00:21:56.497Z,18.47
2022-08-29T00:24:24.025Z,18.29
2022-08-29T00:26:51.560Z,18.36
2022-08-29T00:29:19.023Z,18.49
2022-08-29T00:31:47.936Z,18.43
2022-08-29T00:34:15.493Z,18.32
2022-08-29T00:36:42.990Z,18.27
2022-08-29T00:39:16.746Z,18.25
2022-08-29T00:41:47.561Z,18.25
2022-08-29T00:44:15.166Z,18.24
2022-08-29T00:46:51.371Z,18.18
2022-08-29T00:49:26.365Z,18.12
2022-08-29T00:51:54.755Z,18.08
2022-08-29T00:54:23.484Z,18.05
2022-08-29T00:56:52.048Z,18.05
2022-08-29T00:59:21.673Z,18.00
2022-08-29T01:01:50.621Z,18.03
2022-08-29T01:04:23.646Z,17.89
2022-08-29T01:06:52.618Z,17.91
2022-08-29T01:09:20.874Z,17.89
2022-08-29T01:12:06.207Z,17.91
2022-08-29T01:14:38.272Z,17.91
2022-08-29T01:17:09.320Z,17.85
2022-08-29T01:19:42.752Z,17.76
2022-08-29T01:22:17.760Z,17.79
2022-08-29T01:24:50.617Z,17.83
2022-08-29T01:27:20.425Z,17.75
2022-08-29T01:29:48.394Z,17.75
2022-08-29T01:32:16.126Z,17.77
2022-08-29T01:34:44.017Z,17.76
2022-08-29T01:37:13.959Z,17.73
2022-08-29T01:39:43.071Z,17.68
2022-08-29T01:42:13.700Z,17.65
2022-08-29T01:44:41.913Z,17.62
2022-08-29T01:47:11.314Z,17.61
2022-08-29T01:49:40.954Z,17.56
2022-08-29T01:52:09.045Z,17.46
2022-08-29T01:54:36.690Z,17.52
2022-08-29T01:57:07.609Z,17.49
2022-08-29T01:59:38.853Z,17.52
2022-08-29T02:02:09.281Z,17.52
2022-08-29T02:04:36.925Z,17.49
2022-08-29T02:07:07.314Z,17.51
2022-08-29T02:09:38.129Z,17.51
2022-08-29T02:12:07.223Z,17.51
2022-08-29T02:14:35.430Z,17.44
2022-08-29T02:17:06.025Z,17.45
2022-08-29T02:19:33.790Z,17.44
2022-08-29T02:22:02.577Z,17.38
2022-08-29T02:24:30.614Z,17.37
2022-08-29T02:26:59.075Z,17.34
2022-08-29T02:29:37.490Z,17.35
2022-08-29T02:32:08.793Z,17.32
2022-08-29T02:34:37.081Z,17.34
2022-08-29T02:37:05.962Z,17.23
2022-08-29T02:39:33.892Z,17.29
2022-08-29T02:42:01.540Z,17.20
2022-08-29T02:44:29.187Z,17.17
2022-08-29T02:46:56.729Z,17.12
2022-08-29T02:49:25.614Z,17.09
2022-08-29T02:51:53.170Z,17.03
2022-08-29T02:54:20.659Z,16.99
2022-08-29T02:56:48.146Z,17.01
2022-08-29T02:59:15.799Z,16.99
2022-08-29T03:01:43.374Z,16.98
2022-08-29T03:04:10.887Z,17.02
2022-08-29T03:06:39.720Z,16.89
2022-08-29T03:09:07.269Z,16.85
2022-08-29T03:11:34.848Z,16.94
2022-08-29T03:14:02.372Z,16.92
2022-08-29T03:16:29.977Z,16.95
2022-08-29T03:18:57.788Z,16.95
2022-08-29T03:21:27.302Z,16.88
2022-08-29T03:23:57.117Z,16.90
2022-08-29T03:26:26.395Z,16.90
2022-08-29T03:28:54.143Z,16.83
2022-08-29T03:31:22.035Z,16.81
2022-08-29T03:33:49.666Z,16.86
2022-08-29T03:36:17.356Z,16.69
2022-08-29T03:38:46.313Z,16.78
2022-08-29T03:41:20.814Z,16.68
2022-08-29T03:43:48.310Z,16.79
2022-08-29T03:46:15.891Z,16.71
2022-08-29T03:48:43.410Z,16.67
2022-08-29T03:51:10.931Z,16.66
2022-08-29T03:53:38.424Z,16.62
2022-08-29T03:56:07.058Z,16.64
2022-08-29T03:58:39.113Z,16.55
2022-08-29T04:01:06.962Z,16.59
2022-08-29T04:03:34.573Z,16.43
2022-08-29T04:06:02.798Z,16.35
2022-08-29T04:08:30.301Z,16.38
2022-08-29T04:10:57.793Z,16.33
2022-08-29T04:13:26.039Z,16.37
2022-08-29T04:15:54.905Z,16.41
2022-08-29T04:18:22.661Z,16.36
2022-08-29T04:20:50.729Z,16.33
2022-08-29T04:23:18.221Z,16.26
2022-08-29T04:25:46.079Z,16.27
2022-08-29T04:28:14.998Z,16.26
2022-08-29T04:30:51.322Z,16.19
2022-08-29T04:33:22.351Z,16.08
2022-08-29T04:35:50.472Z,16.08
2022-08-29T04:38:17.999Z,16.10
2022-08-29T04:40:45.578Z,16.08
2022-08-29T04:43:13.079Z,16.09
2022-08-29T04:45:41.425Z,16.06
2022-08-29T04:48:10.691Z,16.10
2022-08-29T04:50:39.993Z,16.03
2022-08-29T04:53:07.676Z,16.04
2022-08-29T04:55:35.161Z,16.04
2022-08-29T04:58:04.066Z,16.00
2022-08-29T05:00:31.594Z,15.98
2022-08-29T05:03:00.087Z,15.99
2022-08-29T05:05:28.541Z,15.96
2022-08-29T05:07:57.366Z,15.94
2022-08-29T05:10:26.175Z,15.97
2022-08-29T05:12:53.716Z,15.90
2022-08-29T05:15:21.514Z,15.84
2022-08-29T05:17:49.115Z,15.87
2022-08-29T05:20:16.878Z,15.93
2022-08-29T05:22:45.106Z,15.98
2022-08-29T05:25:18.279Z,16.01
2022-08-29T05:27:46.492Z,15.95
2022-08-29T05:30:14.172Z,15.91
2022-08-29T05:32:41.666Z,15.93
2022-08-29T05:35:09.816Z,15.94
2022-08-29T05:37:37.672Z,15.97
2022-08-29T05:40:06.363Z,16.00
2022-08-29T05:42:35.238Z,16.06
2022-08-29T05:45:04.774Z,16.07
2022-08-29T05:47:32.752Z,16.16
2022-08-29T05:50:00.805Z,16.19
2022-08-29T05:52:29.463Z,16.14
2022-08-29T05:54:56.992Z,16.13
2022-08-29T05:57:24.627Z,16.19
2022-08-29T05:59:54.633Z,16.25
2022-08-29T06:02:23.390Z,16.34
2022-08-29T06:04:51.034Z,16.43
2022-08-29T06:07:18.982Z,16.46
2022-08-29T06:09:46.754Z,16.48
2022-08-29T06:12:15.982Z,16.51
2022-08-29T06:14:50.187Z,16.52
2022-08-29T06:17:20.050Z,16.58
2022-08-29T06:19:51.159Z,16.57
2022-08-29T06:22:19.755Z,16.58
2022-08-29T06:24:47.513Z,16.62
2022-08-29T06:27:16.299Z,16.64
2022-08-29T06:29:44.065Z,16.76
2022-08-29T06:32:11.723Z,16.73
2022-08-29T06:34:40.594Z,16.83
2022-08-29T06:37:08.095Z,16.86
2022-08-29T06:39:35.799Z,16.88
2022-08-29T06:42:03.367Z,16.84
2022-08-29T06:44:31.318Z,16.87
2022-08-29T06:46:59.057Z,16.88
2022-08-29T06:49:27.570Z,16.92
2022-08-29T06:51:58.262Z,16.92
2022-08-29T06:54:28.537Z,16.96
2022-08-29T06:56:56.972Z,17.05
2022-08-29T06:59:24.595Z,17.09
2022-08-29T07:01:52.331Z,17.19
2022-08-29T07:04:20.654Z,17.21
2022-08-29T07:06:48.790Z,17.30
2022-08-29T07:09:17.722Z,17.27
2022-08-29T07:11:45.321Z,17.34
2022-08-29T07:14:13.666Z,17.40
2022-08-29T07:16:42.081Z,17.54
2022-08-29T07:19:10.987Z,17.65
2022-08-29T07:21:39.712Z,17.81
2022-08-29T07:24:08.248Z,17.95
2022-08-29T07:26:38.865Z,17.95
2022-08-29T07:29:09.584Z,17.98
2022-08-29T07:31:38.945Z,18.17
2022-08-29T07:34:06.703Z,18.28
2022-08-29T07:36:34.902Z,18.31
2022-08-29T07:39:02.853Z,18.38
2022-08-29T07:41:30.321Z,18.35
2022-08-29T07:43:59.631Z,18.45
2022-08-29T07:46:27.505Z,18.51
2022-08-29T07:48:55.091Z,18.57
2022-08-29T07:51:24.324Z,18.65
2022-08-29T07:53:52.456Z,18.69
2022-08-29T07:56:22.871Z,18.79
2022-08-29T07:58:52.571Z,18.86
2022-08-29T08:01:22.058Z,18.90
2022-08-29T08:03:50.219Z,18.90
2022-08-29T08:06:19.317Z,18.95
2022-08-29T08:08:46.835Z,18.96
2022-08-29T08:11:14.850Z,19.09
2022-08-29T08:13:42.538Z,19.24
2022-08-29T08:16:12.549Z,19.36
2022-08-29T08:18:42.422Z,19.49
2022-08-29T08:21:10.610Z,19.56
2022-08-29T08:23:38.863Z,19.72
2022-08-29T08:26:06.843Z,19.84
2022-08-29T08:28:34.531Z,19.88
2022-08-29T08:31:06.183Z,19.88
2022-08-29T08:33:35.370Z,19.85
2022-08-29T08:36:04.620Z,19.85
2022-08-29T08:38:32.265Z,19.91
2022-08-29T08:41:03.510Z,19.91
2022-08-29T08:43:39.235Z,19.99
2022-08-29T08:46:08.210Z,20.00
2022-08-29T08:48:38.680Z,20.11
2022-08-29T08:51:11.474Z,20.23
2022-08-29T08:53:40.995Z,20.41
2022-08-29T08:56:13.707Z,20.50
2022-08-29T08:58:46.431Z,20.60
2022-08-29T09:01:21.830Z,20.64
2022-08-29T09:04:08.684Z,20.65
2022-08-29T09:06:50.525Z,20.65
2022-08-29T09:09:25.872Z,20.65
2022-08-29T09:12:01.653Z,20.73
2022-08-29T09:14:41.715Z,20.68
2022-08-29T09:17:13.897Z,20.77
2022-08-29T09:19:41.393Z,20.85
2022-08-29T09:22:15.265Z,20.97
2022-08-29T09:24:48.891Z,20.99
2022-08-29T09:27:19.278Z,21.00
2022-08-29T09:29:48.516Z,21.04
2022-08-29T09:32:22.187Z,21.05
2022-08-29T09:35:08.084Z,21.06
2022-08-29T09:37:38.069Z,21.24
2022-08-29T09:40:11.770Z,21.28
2022-08-29T09:42:41.948Z,21.33
2022-08-29T09:45:19.819Z,21.38
2022-08-29T09:47:49.749Z,21.39
2022-08-29T09:50:24.502Z,21.46
2022-08-29T09:52:55.361Z,21.54
2022-08-29T09:55:29.097Z,21.64
2022-08-29T09:57:59.139Z,21.70
2022-08-29T10:00:29.839Z,21.79
2022-08-29T10:02:58.726Z,21.73
2022-08-29T10:05:35.791Z,21.70
2022-08-29T10:08:06.454Z,21.83
2022-08-29T10:10:36.173Z,21.92
2022-08-29T10:13:08.264Z,21.93
2022-08-29T10:15:50.426Z,22.03
2022-08-29T10:18:24.054Z,22.08
2022-08-29T10:20:57.242Z,22.17
2022-08-29T10:23:34.397Z,22.20
2022-08-29T10:26:06.555Z,22.25
2022-08-29T10:28:41.488Z,22.26
2022-08-29T10:31:12.735Z,22.44
2022-08-29T10:33:55.632Z,22.44
2022-08-29T10:36:27.392Z,22.46
2022-08-29T10:39:02.212Z,22.48
2022-08-29T10:41:34.218Z,22.49
2022-08-29T10:44:11.240Z,22.60
2022-08-29T10:46:52.305Z,22.64
2022-08-29T10:49:28.480Z,22.74
2022-08-29T10:51:59.941Z,22.83
2022-08-29T10:54:35.689Z,22.90
2022-08-29T10:57:04.876Z,22.97
2022-08-29T10:59:42.580Z,23.11
2022-08-29T11:02:17.576Z,23.00
2022-08-29T11:04:50.546Z,23.03
2022-08-29T11:07:23.141Z,23.00
2022-08-29T11:09:55.653Z,23.02
2022-08-29T11:12:27.090Z,23.07
2022-08-29T11:14:59.135Z,23.27
2022-08-29T11:17:30.668Z,23.26
2022-08-29T11:20:01.935Z,23.29
2022-08-29T11:22:34.327Z,23.40
2022-08-29T11:25:08.566Z,23.37
2022-08-29T11:27:42.520Z,23.34
2022-08-29T11:30:14.114Z,23.44
2022-08-29T11:32:47.889Z,23.49
2022-08-29T11:35:20.506Z,23.64
2022-08-29T11:38:20.436Z,23.71
2022-08-29T11:43:51.398Z,23.69
2022-08-29T11:46:33.605Z,23.73
2022-08-29T11:49:37.144Z,23.86
2022-08-29T11:52:26.851Z,23.91
2022-08-29T11:55:25.888Z,24.11
2022-08-29T11:58:03.257Z,24.21
2022-08-29T12:00:47.958Z,24.27
2022-08-29T12:03:52.790Z,24.25
2022-08-29T12:06:26.704Z,24.37
2022-08-29T12:09:01.720Z,24.47
2022-08-29T12:12:10.329Z,24.40
2022-08-29T12:14:40.821Z,24.67
2022-08-29T12:17:10.179Z,24.67
2022-08-29T12:19:55.209Z,24.65
2022-08-29T12:22:48.865Z,24.59
2022-08-29T12:25:45.635Z,24.86
2022-08-29T12:28:54.705Z,24.88
2022-08-29T12:31:30.584Z,24.86
2022-08-29T12:34:17.068Z,24.88
2022-08-29T12:36:57.924Z,24.93
2022-08-29T12:39:36.105Z,25.06
2022-08-29T12:42:13.493Z,25.11
2022-08-29T12:44:44.605Z,25.22
2022-08-29T12:47:15.421Z,25.23
2022-08-29T12:49:48.411Z,25.27
2022-08-29T12:52:25.116Z,25.29
2022-08-29T12:54:56.321Z,25.21
2022-08-29T12:57:28.751Z,25.11
2022-08-29T12:59:57.185Z,25.17
2022-08-29T13:02:29.654Z,25.22
2022-08-29T13:04:57.843Z,25.28
2022-08-29T13:07:27.743Z,25.34
2022-08-29T13:09:56.823Z,25.23
2022-08-29T13:12:26.359Z,25.32
2022-08-29T13:14:57.458Z,25.34
2022-08-29T13:17:28.745Z,25.34
2022-08-29T13:20:33.527Z,25.31
2022-08-29T13:24:31.535Z,25.32
2022-08-29T13:32:30.555Z,25.43
2022-08-29T13:35:00.596Z,25.53
2022-08-29T13:39:10.084Z,25.47
2022-08-29T13:41:52.891Z,25.45
2022-08-29T13:48:58.650Z,25.69
2022-08-29T13:53:24.091Z,25.71
2022-08-29T14:03:05.848Z,25.69
2022-08-29T14:09:36.690Z,25.62
2022-08-29T14:12:39.745Z,25.61
2022-08-29T14:16:25.530Z,25.65
2022-08-29T14:23:31.548Z,25.81
2022-08-29T14:26:10.989Z,25.89
2022-08-29T14:33:55.100Z,25.86
2022-08-29T14:37:20.720Z,25.85
2022-08-29T14:41:47.907Z,25.92
2022-08-29T14:46:32.168Z,26.07
2022-08-29T14:48:59.741Z,26.10
2022-08-29T14:51:28.685Z,26.00
2022-08-29T14:53:56.424Z,25.96
2022-08-29T14:56:46.979Z,26.01
2022-08-29T14:59:14.912Z,26.06
2022-08-29T15:01:42.776Z,26.11
2022-08-29T15:04:11.076Z,26.12
2022-08-29T15:06:40.958Z,26.03
2022-08-29T15:09:08.518Z,26.04
2022-08-29T15:11:36.023Z,25.96
2022-08-29T15:14:12.821Z,26.17
2022-08-29T15:16:52.399Z,26.08
2022-08-29T15:20:18.144Z,26.11
2022-08-29T15:23:15.564Z,26.12
2022-08-29T15:26:04.172Z,26.18
2022-08-29T15:28:57.537Z,26.26
2022-08-29T15:32:01.530Z,26.19
2022-08-29T15:34:56.629Z,25.99
2022-08-29T15:38:00.786Z,26.12
2022-08-29T15:41:20.085Z,26.12
2022-08-29T15:44:16.250Z,26.07
2022-08-29T15:47:03.626Z,26.13
2022-08-29T15:50:02.216Z,26.09
2022-08-29T15:53:03.177Z,26.12
2022-08-29T15:55:44.551Z,26.17
2022-08-29T15:58:50.549Z,26.29
2022-08-29T16:05:38.957Z,26.32
2022-08-29T16:08:39.167Z,26.27
2022-08-29T16:14:46.654Z,26.21
2022-08-29T16:16:01.872Z,26.25
2022-08-29T16:18:46.819Z,26.20
2022-08-29T16:22:08.203Z,26.23
2022-08-29T16:25:46.597Z,26.16
2022-08-29T16:49:08.925Z,25.98
2022-08-29T16:51:36.470Z,25.98
2022-08-29T16:54:04.077Z,25.94
2022-08-29T16:56:32.759Z,25.88
2022-08-29T16:59:01.485Z,25.83
2022-08-29T17:01:32.465Z,25.81
2022-08-29T17:04:01.450Z,25.81
2022-08-29T17:06:29.395Z,25.80
2022-08-29T17:08:56.206Z,25.79
2022-08-29T17:11:22.725Z,25.77
2022-08-29T17:13:49.220Z,25.72
2022-08-29T17:16:15.899Z,25.66
2022-08-29T17:18:44.990Z,25.63
2022-08-29T17:21:12.767Z,25.61
2022-08-29T17:23:41.331Z,25.55
2022-08-29T17:26:12.450Z,25.56
2022-08-29T17:28:41.324Z,25.51
2022-08-29T17:31:09.539Z,25.47
2022-08-29T17:33:37.235Z,25.42
2022-08-29T17:36:07.878Z,25.49
2022-08-29T17:38:35.384Z,25.43
2022-08-29T17:41:05.252Z,25.41
2022-08-29T17:43:43.405Z,25.27
2022-08-29T17:46:11.373Z,25.14
2022-08-29T17:48:38.910Z,25.16
2022-08-29T17:51:09.757Z,25.08
2022-08-29T17:53:46.583Z,25.08
2022-08-29T17:56:22.324Z,24.99
2022-08-29T17:59:09.265Z,24.97
2022-08-29T18:01:39.614Z,24.88
2022-08-29T18:04:10.853Z,24.92
2022-08-29T18:06:41.127Z,24.85
2022-08-29T18:09:12.036Z,24.77
2022-08-29T18:11:42.888Z,24.64
2022-08-29T18:14:13.978Z,24.70
2022-08-29T18:16:55.194Z,24.69
2022-08-29T18:19:25.023Z,24.59
2022-08-29T18:22:10.295Z,24.48
2022-08-29T18:24:54.583Z,24.47
2022-08-29T18:27:26.304Z,24.42
2022-08-29T18:29:55.072Z,24.37
2022-08-29T18:32:37.183Z,24.33
2022-08-29T18:35:06.239Z,24.19
2022-08-29T18:37:42.428Z,24.15
2022-08-29T18:40:16.059Z,24.11
2022-08-29T18:42:44.112Z,24.05
2022-08-29T18:45:12.913Z,24.04
2022-08-29T18:47:40.410Z,24.03
2022-08-29T18:50:28.064Z,23.95
2022-08-29T18:52:57.465Z,23.92
2022-08-29T18:55:28.201Z,23.85
2022-08-29T18:58:06.081Z,23.81
2022-08-29T19:00:48.642Z,23.67
2022-08-29T19:03:22.423Z,23.70
2022-08-29T19:06:25.173Z,23.68
2022-08-29T19:09:25.968Z,23.61
2022-08-29T19:13:02.736Z,23.57
2022-08-29T19:15:34.030Z,23.54
2022-08-29T19:18:48.975Z,23.43
2022-08-29T19:21:42.198Z,23.41
2022-08-29T19:24:41.883Z,23.36
2022-08-29T19:27:43.571Z,23.31
2022-08-29T19:30:18.982Z,23.25
2022-08-29T19:32:58.246Z,23.20
2022-08-29T19:35:41.516Z,23.18
2022-08-29T19:38:12.240Z,23.11
2022-08-29T19:40:44.825Z,23.01
2022-08-29T19:43:28.467Z,23.03
2022-08-29T19:46:18.216Z,22.94
2022-08-29T19:49:33.010Z,22.87
2022-08-29T19:52:19.528Z,22.88
2022-08-29T19:54:48.812Z,22.87
2022-08-29T19:57:23.962Z,22.87
2022-08-29T20:00:13.932Z,22.75
2022-08-29T20:05:45.482Z,22.61
2022-08-29T20:08:47.491Z,22.53
2022-08-29T20:11:25.189Z,22.44
2022-08-29T20:14:20.134Z,22.39
2022-08-29T20:17:30.373Z,22.33
2022-08-29T20:38:35.585Z,21.80
2022-08-29T20:41:15.490Z,21.83
2022-08-29T20:44:17.267Z,21.77
2022-08-29T20:47:05.370Z,21.72
2022-08-29T20:53:06.649Z,21.58
2022-08-29T20:56:05.700Z,21.55
2022-08-29T20:59:15.429Z,21.49
2022-08-29T21:02:30.519Z,21.41
2022-08-29T21:06:22.751Z,21.30
2022-08-29T21:09:13.387Z,21.32
2022-08-29T21:13:08.842Z,21.26
2022-08-29T21:19:58.807Z,21.21
2022-08-29T21:23:23.221Z,21.10
2022-08-29T21:25:58.653Z,21.02
2022-08-29T21:28:34.207Z,20.97
2022-08-29T21:31:31.440Z,20.86
2022-08-29T21:34:18.039Z,20.81
2022-08-29T21:40:46.790Z,20.74
2022-08-29T21:47:42.898Z,20.65
2022-08-29T21:57:58.613Z,20.47
2022-08-29T22:01:46.474Z,20.44
2022-08-29T22:08:23.093Z,20.32
2022-08-29T22:12:01.944Z,20.32
2022-08-29T22:15:31.887Z,20.31
2022-08-29T22:33:35.574Z,20.03
2022-08-29T22:43:34.248Z,19.94
2022-08-29T22:46:12.550Z,19.92
2022-08-29T22:49:42.197Z,19.94
2022-08-29T22:52:48.558Z,19.94
2022-08-29T22:55:58.113Z,19.83
2022-08-29T23:06:22.705Z,19.76
2022-08-29T23:16:26.931Z,19.68
2022-08-29T23:23:04.316Z,19.69
2022-08-29T23:29:49.705Z,19.51
2022-08-29T23:39:29.271Z,19.31
2022-08-29T23:42:21.245Z,19.29
2022-08-29T23:46:48.475Z,19.31
2022-08-29T23:48:00.154Z,19.21
2022-08-29T23:50:27.645Z,19.23
2022-08-29T23:52:56.455Z,19.17
2022-08-29T23:55:23.958Z,19.09
2022-08-29T23:57:52.934Z,19.05
